createdAt,value
2023-03-11T00:00:21.607Z,5.75
2023-03-11T00:02:50.553Z,6.03
2023-03-11T00:05:20.022Z,7.35
2023-03-11T00:07:46.886Z,5.47
2023-03-11T00:10:21.808Z,4.45
2023-03-11T00:12:48.505Z,5.60
2023-03-11T00:15:15.278Z,3.88
2023-03-11T00:17:42.011Z,4.53
2023-03-11T00:20:15.357Z,4.53
2023-03-11T00:22:41.990Z,5.50
2023-03-11T00:25:10.936Z,4.25
2023-03-11T00:27:37.627Z,2.80
2023-03-11T00:30:05.285Z,3.08
2023-03-11T00:32:32.000Z,3.38
2023-03-11T00:34:58.706Z,3.55
2023-03-11T00:37:25.352Z,3.45
2023-03-11T00:42:18.515Z,6.72
2023-03-11T00:47:12.370Z,3.30
2023-03-11T00:49:39.431Z,2.78
2023-03-11T00:52:06.634Z,2.58
2023-03-11T00:54:33.412Z,2.85
2023-03-11T00:57:00.172Z,4.50
2023-03-11T00:59:26.853Z,3.50
2023-03-11T01:01:53.469Z,2.08
2023-03-11T01:06:46.784Z,2.63
2023-03-11T01:11:40.075Z,3.67
2023-03-11T01:14:06.772Z,2.90
2023-03-11T01:16:33.550Z,3.67
2023-03-11T01:19:00.362Z,4.53
2023-03-11T01:21:27.104Z,4.75
2023-03-11T01:23:53.817Z,3.33
2023-03-11T01:26:20.540Z,3.42
2023-03-11T01:28:48.090Z,3.88
2023-03-11T01:31:14.798Z,2.72
2023-03-11T01:33:41.582Z,5.25
2023-03-11T01:36:08.660Z,3.25
2023-03-11T01:38:35.525Z,4.15
2023-03-11T01:41:02.235Z,3.50
2023-03-11T01:43:44.200Z,3.30
2023-03-11T01:46:13.962Z,4.90
2023-03-11T01:48:45.075Z,4.22
2023-03-11T01:51:12.012Z,4.22
2023-03-11T01:53:39.391Z,3.45
2023-03-11T01:56:06.634Z,3.45
2023-03-11T01:58:39.360Z,4.00
2023-03-11T02:01:07.661Z,4.80
2023-03-11T02:03:39.492Z,3.65
2023-03-11T02:06:14.087Z,3.30
2023-03-11T02:08:42.360Z,3.83
2023-03-11T02:11:30.628Z,5.70
2023-03-11T02:14:03.086Z,3.33
2023-03-11T02:16:29.842Z,5.72
2023-03-11T02:19:00.462Z,3.50
2023-03-11T02:21:30.175Z,3.33
2023-03-11T02:24:24.226Z,4.07
2023-03-11T02:27:05.248Z,6.95
2023-03-11T02:29:33.829Z,3.92
2023-03-11T02:32:06.633Z,5.85
2023-03-11T02:34:35.554Z,5.00
2023-03-11T02:37:09.143Z,5.20
2023-03-11T02:39:47.587Z,4.55
2023-03-11T02:42:31.888Z,9.20
2023-03-11T02:45:09.081Z,5.20
2023-03-11T02:47:37.618Z,7.60
2023-03-11T02:50:05.764Z,4.85
2023-03-11T02:52:34.290Z,7.18
2023-03-11T02:55:01.271Z,4.03
2023-03-11T02:57:27.905Z,5.20
2023-03-11T03:02:21.205Z,6.32
2023-03-11T03:04:47.875Z,6.03
2023-03-11T03:07:14.582Z,5.75
2023-03-11T03:09:41.314Z,3.00
2023-03-11T03:12:08.104Z,4.53
2023-03-11T03:14:34.791Z,4.70
2023-03-11T03:17:01.549Z,4.45
2023-03-11T03:19:28.242Z,4.60
2023-03-11T03:24:21.659Z,7.18
2023-03-11T03:26:48.351Z,3.03
2023-03-11T03:31:41.705Z,4.90
2023-03-11T03:34:08.870Z,5.07
2023-03-11T03:36:35.500Z,3.42
2023-03-11T03:41:28.875Z,6.22
2023-03-11T03:43:55.566Z,2.72
2023-03-11T03:46:22.640Z,3.60
2023-03-11T03:48:49.296Z,5.13
2023-03-11T03:51:16.337Z,1.85
2023-03-11T03:53:43.286Z,2.97
2023-03-11T03:56:13.336Z,4.22
2023-03-11T03:58:40.007Z,2.67
2023-03-11T04:01:07.437Z,2.45
2023-03-11T04:03:35.241Z,4.47
2023-03-11T04:06:10.949Z,3.25
2023-03-11T04:08:38.108Z,3.97
2023-03-11T04:11:04.934Z,3.60
2023-03-11T04:13:31.840Z,3.92
2023-03-11T04:15:58.691Z,4.20
2023-03-11T04:18:25.429Z,3.53
2023-03-11T04:20:52.093Z,3.95
2023-03-11T04:25:45.495Z,4.07
2023-03-11T04:28:12.203Z,3.63
2023-03-11T04:30:40.115Z,3.80
2023-03-11T04:33:06.851Z,7.18
2023-03-11T04:35:33.655Z,4.97
2023-03-11T04:38:01.025Z,5.47
2023-03-11T04:40:28.323Z,3.92
2023-03-11T04:42:55.080Z,4.85
2023-03-11T04:45:21.722Z,6.78
2023-03-11T04:47:51.753Z,6.22
2023-03-11T04:50:18.938Z,6.18
2023-03-11T04:52:46.758Z,4.53
2023-03-11T04:55:14.781Z,5.60
2023-03-11T04:57:42.352Z,4.22
2023-03-11T05:00:15.680Z,4.22
2023-03-11T05:02:42.987Z,5.55
2023-03-11T05:05:10.194Z,6.00
2023-03-11T05:07:37.053Z,5.28
2023-03-11T05:10:04.839Z,5.63
2023-03-11T05:12:31.489Z,5.35
2023-03-11T05:14:58.174Z,7.07
2023-03-11T05:17:24.995Z,4.03
2023-03-11T05:19:53.711Z,3.30
2023-03-11T05:22:21.151Z,4.05
2023-03-11T05:24:48.141Z,4.63
2023-03-11T05:27:17.930Z,5.07
2023-03-11T05:29:45.158Z,4.82
2023-03-11T05:32:13.545Z,4.60
2023-03-11T05:34:40.668Z,6.32
2023-03-11T05:37:07.771Z,6.38
2023-03-11T05:39:34.732Z,5.95
2023-03-11T05:42:01.420Z,4.47
2023-03-11T05:44:28.197Z,4.93
2023-03-11T05:46:54.918Z,5.25
2023-03-11T05:49:22.032Z,5.07
2023-03-11T05:51:50.206Z,6.18
2023-03-11T05:54:17.412Z,6.85
2023-03-11T05:56:45.643Z,5.70
2023-03-11T05:59:16.357Z,4.82
2023-03-11T06:01:43.910Z,6.03
2023-03-11T06:04:11.280Z,3.85
2023-03-11T06:06:40.428Z,4.82
2023-03-11T06:09:07.754Z,5.35
2023-03-11T06:11:34.433Z,7.65
2023-03-11T06:14:01.054Z,3.97
2023-03-11T06:18:54.689Z,5.75
2023-03-11T06:21:23.882Z,6.22
2023-03-11T06:23:50.735Z,4.05
2023-03-11T06:26:20.258Z,4.85
2023-03-11T06:28:48.205Z,5.38
2023-03-11T06:31:17.786Z,5.43
2023-03-11T06:33:44.748Z,3.92
2023-03-11T06:36:13.725Z,4.57
2023-03-11T06:38:41.167Z,5.30
2023-03-11T06:41:08.321Z,4.22
2023-03-11T06:43:36.356Z,7.25
2023-03-11T06:46:09.747Z,5.20
2023-03-11T06:48:36.551Z,4.72
2023-03-11T06:51:03.277Z,5.35
2023-03-11T06:53:30.628Z,5.10
2023-03-11T06:56:09.384Z,5.72
2023-03-11T06:58:37.830Z,3.53
2023-03-11T07:01:16.350Z,7.60
2023-03-11T07:03:43.522Z,4.22
2023-03-11T07:06:16.043Z,4.57
2023-03-11T07:08:42.863Z,2.38
2023-03-11T07:11:12.981Z,10.75
2023-03-11T07:13:39.894Z,5.85
2023-03-11T07:16:10.378Z,2.80
2023-03-11T07:18:37.133Z,4.30
2023-03-11T07:21:06.369Z,3.45
2023-03-11T07:23:33.497Z,4.13
2023-03-11T07:26:00.245Z,5.63
2023-03-11T07:28:28.231Z,5.45
2023-03-11T07:30:55.421Z,5.50
2023-03-11T07:33:24.178Z,3.85
2023-03-11T07:35:51.416Z,5.18
2023-03-11T07:38:19.787Z,2.22
2023-03-11T07:40:46.739Z,4.15
2023-03-11T07:43:13.634Z,5.00
2023-03-11T07:45:40.477Z,4.28
2023-03-11T07:48:07.286Z,3.05
2023-03-11T07:50:34.014Z,4.00
2023-03-11T07:53:00.876Z,6.22
2023-03-11T07:55:27.578Z,6.80
2023-03-11T07:57:54.502Z,5.05
2023-03-11T08:00:21.374Z,3.40
2023-03-11T08:02:48.159Z,5.63
2023-03-11T08:05:14.955Z,6.35
2023-03-11T08:07:41.662Z,4.30
2023-03-11T08:10:08.918Z,4.00
2023-03-11T08:12:35.590Z,3.28
2023-03-11T08:15:02.255Z,3.72
2023-03-11T08:17:28.999Z,3.47
2023-03-11T08:19:55.623Z,4.35
2023-03-11T08:22:22.241Z,2.85
2023-03-11T08:24:53.005Z,3.15
2023-03-11T08:27:19.741Z,3.10
2023-03-11T08:29:46.420Z,5.85
2023-03-11T08:32:13.089Z,2.80
2023-03-11T08:34:39.907Z,3.08
2023-03-11T08:37:07.041Z,4.00
2023-03-11T08:39:33.685Z,2.70
2023-03-11T08:42:00.565Z,6.88
2023-03-11T08:44:27.339Z,4.68
2023-03-11T08:46:54.263Z,4.05
2023-03-11T08:49:20.997Z,2.28
2023-03-11T08:51:47.737Z,7.45
2023-03-11T08:54:14.420Z,3.55
2023-03-11T08:56:41.169Z,3.20
2023-03-11T08:59:08.587Z,5.20
2023-03-11T09:01:35.323Z,3.17
2023-03-11T09:04:02.116Z,3.60
2023-03-11T09:06:30.331Z,4.05
2023-03-11T09:08:57.188Z,2.05
2023-03-11T09:11:24.011Z,3.00
2023-03-11T09:13:51.438Z,6.68
2023-03-11T09:16:21.291Z,3.80
2023-03-11T09:18:47.988Z,11.18
2023-03-11T09:21:14.822Z,2.50
2023-03-11T09:23:44.207Z,3.70
2023-03-11T09:26:12.169Z,2.97
2023-03-11T09:28:39.720Z,6.40
2023-03-11T09:31:06.858Z,2.97
2023-03-11T09:33:38.667Z,2.95
2023-03-11T09:36:06.095Z,1.88
2023-03-11T09:38:33.168Z,5.03
2023-03-11T09:41:19.992Z,4.65
2023-03-11T09:44:08.397Z,2.72
2023-03-11T09:46:56.719Z,1.58
2023-03-11T09:49:58.367Z,4.75
2023-03-11T09:52:32.794Z,3.70
2023-03-11T09:55:01.024Z,4.18
2023-03-11T09:57:34.669Z,4.80
2023-03-11T10:00:04.450Z,1.52
2023-03-11T10:02:32.531Z,6.22
2023-03-11T10:05:02.570Z,1.55
2023-03-11T10:07:38.101Z,1.88
2023-03-11T10:10:05.781Z,3.90
2023-03-11T10:12:51.398Z,3.45
2023-03-11T10:15:25.123Z,5.70
2023-03-11T10:18:10.825Z,0.95
2023-03-11T10:21:13.165Z,3.55
2023-03-11T10:24:08.234Z,2.22
2023-03-11T10:26:43.399Z,7.65
2023-03-11T10:29:27.477Z,2.05
2023-03-11T10:32:15.256Z,2.03
2023-03-11T10:34:56.860Z,2.60
2023-03-11T10:37:48.411Z,2.85
2023-03-11T10:40:39.953Z,2.08
2023-03-11T10:43:17.561Z,4.05
2023-03-11T10:45:48.365Z,5.05
2023-03-11T10:48:17.253Z,5.57
2023-03-11T10:51:03.232Z,1.38
2023-03-11T10:53:30.605Z,3.53
2023-03-11T10:55:59.412Z,4.45
2023-03-11T10:58:30.821Z,4.93
2023-03-11T11:01:01.755Z,4.15
2023-03-11T11:03:29.234Z,3.45
2023-03-11T11:06:26.571Z,4.65
2023-03-11T11:09:20.503Z,3.33
2023-03-11T11:12:02.736Z,3.22
2023-03-11T11:14:50.194Z,4.18
2023-03-11T11:17:37.101Z,2.10
2023-03-11T11:20:13.498Z,4.40
2023-03-11T11:23:08.517Z,3.53
2023-03-11T11:25:42.715Z,5.78
2023-03-11T11:28:18.765Z,3.28
2023-03-11T11:31:03.921Z,4.43
2023-03-11T11:33:50.370Z,5.97
2023-03-11T11:36:20.159Z,6.63
2023-03-11T11:38:46.832Z,2.72
2023-03-11T11:41:18.322Z,6.47
2023-03-11T11:44:03.618Z,8.02
2023-03-11T11:47:20.075Z,6.63
2023-03-11T11:49:56.829Z,2.72
2023-03-11T11:52:32.910Z,4.13
2023-03-11T11:55:06.874Z,2.67
2023-03-11T11:57:34.101Z,2.85
2023-03-11T12:00:05.830Z,1.70
2023-03-11T12:02:51.006Z,1.45
2023-03-11T12:05:25.933Z,3.70
2023-03-11T12:08:08.437Z,4.60
2023-03-11T12:10:52.809Z,3.42
2023-03-11T12:13:46.475Z,4.03
2023-03-11T12:16:34.250Z,4.88
2023-03-11T12:19:10.258Z,2.03
2023-03-11T12:21:57.613Z,3.97
2023-03-11T12:25:09.944Z,3.85
2023-03-11T12:27:50.338Z,1.48
2023-03-11T12:30:28.654Z,5.22
2023-03-11T12:33:03.233Z,3.58
2023-03-11T12:35:32.749Z,2.25
2023-03-11T12:38:20.916Z,5.32
2023-03-11T12:40:47.772Z,1.55
2023-03-11T12:43:35.615Z,2.00
2023-03-11T12:46:07.235Z,2.33
2023-03-11T12:48:43.578Z,2.17
2023-03-11T12:51:37.440Z,2.10
2023-03-11T12:54:22.451Z,1.00
2023-03-11T12:56:57.579Z,3.35
2023-03-11T13:00:00.020Z,2.95
2023-03-11T13:02:53.108Z,2.47
2023-03-11T13:05:37.946Z,1.50
2023-03-11T13:08:14.496Z,2.60
2023-03-11T13:10:42.778Z,5.28
2023-03-11T13:13:35.254Z,3.95
2023-03-11T13:16:24.784Z,4.55
2023-03-11T13:18:54.204Z,3.15
2023-03-11T13:21:30.060Z,1.75
2023-03-11T13:24:18.642Z,3.25
2023-03-11T13:26:53.193Z,5.15
2023-03-11T13:29:47.904Z,5.28
2023-03-11T13:33:04.158Z,1.85
2023-03-11T13:36:07.213Z,1.55
2023-03-11T13:39:04.609Z,1.65
2023-03-11T13:41:35.041Z,4.97
2023-03-11T13:44:35.475Z,2.80
2023-03-11T13:47:15.639Z,2.85
2023-03-11T13:50:00.752Z,3.35
2023-03-11T13:52:37.948Z,5.78
2023-03-11T13:55:18.610Z,2.78
2023-03-11T13:57:56.452Z,3.53
2023-03-11T14:00:27.902Z,6.45
2023-03-11T14:02:58.575Z,1.67
2023-03-11T14:05:34.448Z,1.02
2023-03-11T14:08:28.988Z,3.83
2023-03-11T14:11:03.370Z,3.72
2023-03-11T14:13:33.246Z,6.53
2023-03-11T14:16:28.796Z,6.10
2023-03-11T14:19:08.550Z,2.70
2023-03-11T14:21:35.608Z,3.38
2023-03-11T14:24:03.297Z,5.22
2023-03-11T14:26:35.303Z,5.95
2023-03-11T14:29:08.662Z,3.03
2023-03-11T14:31:41.424Z,2.90
2023-03-11T14:36:44.590Z,3.25
2023-03-11T14:39:35.944Z,2.15
2023-03-11T14:42:19.033Z,3.20
2023-03-11T14:45:07.984Z,0.80
2023-03-11T14:47:47.113Z,2.95
2023-03-11T14:50:21.171Z,3.17
2023-03-11T14:53:12.316Z,1.65
2023-03-11T14:55:46.383Z,4.63
2023-03-11T14:58:40.354Z,2.70
2023-03-11T15:01:13.143Z,4.07
2023-03-11T15:03:46.423Z,2.92
2023-03-11T15:06:17.458Z,4.20
2023-03-11T15:08:45.729Z,3.00
2023-03-11T15:11:12.337Z,3.58
2023-03-11T15:13:41.662Z,4.75
2023-03-11T15:16:22.348Z,5.65
2023-03-11T15:18:49.128Z,1.40
2023-03-11T15:21:17.956Z,5.20
2023-03-11T15:23:51.002Z,2.78
2023-03-11T15:26:27.055Z,5.88
2023-03-11T15:29:15.474Z,1.33
2023-03-11T15:31:44.879Z,10.23
2023-03-11T15:34:25.140Z,2.75
2023-03-11T15:36:52.814Z,2.72
2023-03-11T15:39:30.594Z,2.15
2023-03-11T15:42:03.524Z,3.05
2023-03-11T15:44:35.942Z,5.07
2023-03-11T15:47:03.989Z,3.13
2023-03-11T15:49:31.013Z,1.77
2023-03-11T15:52:02.388Z,4.57
2023-03-11T15:54:29.308Z,4.18
2023-03-11T15:56:58.787Z,3.00
2023-03-11T15:59:25.987Z,4.40
2023-03-11T16:01:52.625Z,1.98
2023-03-11T16:04:20.888Z,3.05
2023-03-11T16:06:59.500Z,4.28
2023-03-11T16:09:34.247Z,2.92
2023-03-11T16:12:02.111Z,3.63
2023-03-11T16:14:28.744Z,3.70
2023-03-11T16:16:55.408Z,2.88
2023-03-11T16:19:22.102Z,3.72
2023-03-11T16:21:50.490Z,4.30
2023-03-11T16:24:20.785Z,3.28
2023-03-11T16:26:47.636Z,4.55
2023-03-11T16:29:19.323Z,4.55
2023-03-11T16:31:49.217Z,2.95
2023-03-11T16:34:15.876Z,2.75
2023-03-11T16:36:42.457Z,1.67
2023-03-11T16:39:09.517Z,3.58
2023-03-11T16:41:44.139Z,5.30
2023-03-11T16:44:11.558Z,2.53
2023-03-11T16:46:38.636Z,5.95
2023-03-11T16:49:05.472Z,3.35
2023-03-11T16:51:32.547Z,4.38
2023-03-11T16:53:59.309Z,4.70
2023-03-11T16:56:26.006Z,2.65
2023-03-11T16:58:52.641Z,5.20
2023-03-11T17:01:21.588Z,2.80
2023-03-11T17:03:51.937Z,4.88
2023-03-11T17:06:19.935Z,5.32
2023-03-11T17:08:49.252Z,4.78
2023-03-11T17:11:22.079Z,4.45
2023-03-11T17:13:50.062Z,6.65
2023-03-11T17:16:16.852Z,5.90
2023-03-11T17:18:43.609Z,5.18
2023-03-11T17:21:13.854Z,6.22
2023-03-11T17:23:41.312Z,4.63
2023-03-11T17:26:10.753Z,5.93
2023-03-11T17:28:40.138Z,3.88
2023-03-11T17:31:15.343Z,7.82
2023-03-11T17:33:42.731Z,7.50
2023-03-11T17:36:13.462Z,5.43
2023-03-11T17:38:40.179Z,6.30
2023-03-11T17:41:13.290Z,6.13
2023-03-11T17:43:40.137Z,5.32
2023-03-11T17:46:08.283Z,6.07
2023-03-11T17:48:34.977Z,7.30
2023-03-11T17:51:10.214Z,4.13
2023-03-11T17:53:38.698Z,15.77
2023-03-11T17:56:07.050Z,6.10
2023-03-11T17:58:34.425Z,7.55
2023-03-11T18:01:07.423Z,8.55
2023-03-11T18:03:34.388Z,7.50
2023-03-11T18:06:05.484Z,9.57
2023-03-11T18:08:33.672Z,7.70
2023-03-11T18:11:09.684Z,7.68
2023-03-11T18:13:37.711Z,6.32
2023-03-11T18:16:07.334Z,8.68
2023-03-11T18:18:35.487Z,7.93
2023-03-11T18:21:06.034Z,14.32
2023-03-11T18:23:33.597Z,10.32
2023-03-11T18:26:01.869Z,14.10
2023-03-11T18:28:29.012Z,10.43
2023-03-11T18:30:55.881Z,12.63
2023-03-11T18:33:24.079Z,14.70
2023-03-11T18:35:51.215Z,15.40
2023-03-11T18:38:17.924Z,12.27
2023-03-11T18:40:44.564Z,16.10
2023-03-11T18:43:14.050Z,16.23
2023-03-11T18:45:40.762Z,11.90
2023-03-11T18:48:07.453Z,10.73
2023-03-11T18:50:34.276Z,14.13
2023-03-11T18:53:01.658Z,11.77
2023-03-11T18:55:28.319Z,12.35
2023-03-11T18:57:54.957Z,11.15
2023-03-11T19:00:23.564Z,11.75
2023-03-11T19:02:51.933Z,10.60
2023-03-11T19:05:18.662Z,13.32
2023-03-11T19:07:45.342Z,11.25
2023-03-11T19:10:12.323Z,9.70
2023-03-11T19:12:39.931Z,11.32
2023-03-11T19:15:07.366Z,11.63
2023-03-11T19:17:34.013Z,12.32
2023-03-11T19:20:00.631Z,14.45
2023-03-11T19:24:54.178Z,13.55
2023-03-11T19:27:20.793Z,15.98
2023-03-11T19:32:13.981Z,19.50
2023-03-11T19:34:40.710Z,24.67
2023-03-11T19:37:07.355Z,22.25
2023-03-11T19:42:01.038Z,22.00
2023-03-11T19:44:27.798Z,17.15
2023-03-11T19:46:54.492Z,17.80
2023-03-11T19:49:21.937Z,13.68
2023-03-11T19:51:50.580Z,15.10
2023-03-11T19:54:18.124Z,16.27
2023-03-11T19:56:45.325Z,13.98
2023-03-11T19:59:12.327Z,17.90
2023-03-11T20:01:39.102Z,15.48
2023-03-11T20:04:06.162Z,17.52
2023-03-11T20:06:32.947Z,19.35
2023-03-11T20:08:59.809Z,18.92
2023-03-11T20:11:27.606Z,17.60
2023-03-11T20:13:54.436Z,13.55
2023-03-11T20:16:21.257Z,17.27
2023-03-11T20:18:51.452Z,15.15
2023-03-11T20:21:18.963Z,18.45
2023-03-11T20:23:45.713Z,15.82
2023-03-11T20:26:15.013Z,16.40
2023-03-11T20:28:42.077Z,18.25
2023-03-11T20:31:12.254Z,20.15
2023-03-11T20:33:39.056Z,19.23
2023-03-11T20:36:08.421Z,17.50
2023-03-11T20:38:35.616Z,25.52
2023-03-11T20:41:06.189Z,21.73
2023-03-11T20:43:33.750Z,23.60
2023-03-11T20:46:01.041Z,24.33
2023-03-11T20:48:28.130Z,25.67
2023-03-11T20:50:54.889Z,28.83
2023-03-11T20:53:21.724Z,27.48
2023-03-11T20:55:48.532Z,37.67
2023-03-11T20:58:15.208Z,31.85
2023-03-11T21:00:41.999Z,33.45
2023-03-11T21:03:08.870Z,43.22
2023-03-11T21:05:37.065Z,35.70
2023-03-11T21:08:04.826Z,37.05
2023-03-11T21:10:32.169Z,35.65
2023-03-11T21:12:58.999Z,30.90
2023-03-11T21:15:26.155Z,29.63
2023-03-11T21:17:52.913Z,33.90
2023-03-11T21:20:19.912Z,29.73
2023-03-11T21:22:46.681Z,30.65
2023-03-11T21:25:13.435Z,29.05
2023-03-11T21:27:40.189Z,27.00
2023-03-11T21:32:34.004Z,23.88
2023-03-11T21:35:01.512Z,26.77
2023-03-11T21:37:28.766Z,26.23
2023-03-11T21:39:55.699Z,43.60
2023-03-11T21:42:22.878Z,36.10
2023-03-11T21:44:51.292Z,30.67
2023-03-11T21:47:18.425Z,31.27
2023-03-11T21:49:45.239Z,24.65
2023-03-11T21:52:11.959Z,23.83
2023-03-11T21:57:05.334Z,21.85
2023-03-11T21:59:32.070Z,22.95
2023-03-11T22:02:02.640Z,16.42
2023-03-11T22:04:30.738Z,19.65
2023-03-11T22:06:57.669Z,16.77
2023-03-11T22:09:25.797Z,16.90
2023-03-11T22:11:52.762Z,16.90
2023-03-11T22:14:19.448Z,17.67
2023-03-11T22:19:12.924Z,11.88
2023-03-11T22:21:39.790Z,13.52
2023-03-11T22:24:06.605Z,14.55
2023-03-11T22:26:33.449Z,17.80
2023-03-11T22:29:01.866Z,19.88
2023-03-11T22:31:29.875Z,14.48
2023-03-11T22:33:57.291Z,14.20
2023-03-11T22:36:24.009Z,21.27
2023-03-11T22:41:19.243Z,15.95
2023-03-11T22:43:46.091Z,16.75
2023-03-11T22:46:18.694Z,20.92
2023-03-11T22:48:45.392Z,18.52
2023-03-11T22:53:39.571Z,13.40
2023-03-11T22:58:33.808Z,17.08
2023-03-11T23:03:27.781Z,14.98
2023-03-11T23:05:57.560Z,16.92
2023-03-11T23:08:24.243Z,17.60
2023-03-11T23:13:17.583Z,13.45
2023-03-11T23:15:45.977Z,21.70
2023-03-11T23:18:13.283Z,15.60
2023-03-11T23:20:41.722Z,16.30
2023-03-11T23:23:08.846Z,21.30
2023-03-11T23:25:35.994Z,15.55
2023-03-11T23:28:04.588Z,16.48
2023-03-11T23:30:31.948Z,18.65
2023-03-11T23:32:59.167Z,14.85
2023-03-11T23:35:25.960Z,20.00
2023-03-11T23:40:19.350Z,16.45
2023-03-11T23:45:12.611Z,12.77
2023-03-11T23:50:06.321Z,12.30
2023-03-11T23:52:33.340Z,13.93
2023-03-11T23:55:01.006Z,12.68
2023-03-11T23:57:27.761Z,12.13
